sensor_id;sensor_type;location;lat;lon;timestamp;pressure;altitude;pressure_sealevel;temperature;humidity
38303;BME280;24103;42.454;27.400;2023-05-22T00:01:23;100334.84;;;15.62;100.00
38303;BME280;24103;42.454;27.400;2023-05-22T00:03:51;100326.84;;;15.62;100.00
38303;BME280;24103;42.454;27.400;2023-05-22T00:06:17;100333.97;;;15.62;100.00
38303;BME280;24103;42.454;27.400;2023-05-22T00:08:43;100333.97;;;15.62;100.00
38303;BME280;24103;42.454;27.400;2023-05-22T00:11:09;100337.66;;;15.50;100.00
38303;BME280;24103;42.454;27.400;2023-05-22T00:13:35;100334.78;;;15.41;100.00
38303;BME280;24103;42.454;27.400;2023-05-22T00:16:00;100332.97;;;15.30;100.00
38303;BME280;24103;42.454;27.400;2023-05-22T00:18:26;100330.34;;;15.19;100.00
38303;BME280;24103;42.454;27.400;2023-05-22T00:20:52;100322.66;;;15.05;100.00
38303;BME280;24103;42.454;27.400;2023-05-22T00:23:18;100323.72;;;14.91;100.00
38303;BME280;24103;42.454;27.400;2023-05-22T00:25:46;100320.25;;;14.79;100.00
38303;BME280;24103;42.454;27.400;2023-05-22T00:28:11;100325.06;;;14.74;100.00
38303;BME280;24103;42.454;27.400;2023-05-22T00:30:37;100333.41;;;14.69;100.00
38303;BME280;24103;42.454;27.400;2023-05-22T00:33:03;100327.84;;;14.61;100.00
38303;BME280;24103;42.454;27.400;2023-05-22T00:35:29;100325.63;;;14.55;100.00
38303;BME280;24103;42.454;27.400;2023-05-22T00:37:54;100322.59;;;14.48;100.00
38303;BME280;24103;42.454;27.400;2023-05-22T00:40:20;100316.69;;;14.45;100.00
38303;BME280;24103;42.454;27.400;2023-05-22T00:42:46;100322.63;;;14.37;100.00
38303;BME280;24103;42.454;27.400;2023-05-22T00:45:13;100323.56;;;14.36;100.00
38303;BME280;24103;42.454;27.400;2023-05-22T00:47:39;100324.41;;;14.36;100.00
38303;BME280;24103;42.454;27.400;2023-05-22T00:50:06;100324.41;;;14.36;100.00
38303;BME280;24103;42.454;27.400;2023-05-22T00:52:34;100325.50;;;14.34;100.00
38303;BME280;24103;42.454;27.400;2023-05-22T00:55:01;100320.44;;;14.31;100.00
38303;BME280;24103;42.454;27.400;2023-05-22T00:57:28;100333.84;;;14.29;100.00
38303;BME280;24103;42.454;27.400;2023-05-22T00:59:55;100325.75;;;14.31;100.00
38303;BME280;24103;42.454;27.400;2023-05-22T01:02:20;100329.13;;;14.33;100.00
38303;BME280;24103;42.454;27.400;2023-05-22T01:04:47;100329.47;;;14.28;100.00
38303;BME280;24103;42.454;27.400;2023-05-22T01:07:13;100322.72;;;14.24;100.00
38303;BME280;24103;42.454;27.400;2023-05-22T01:09:41;100316.91;;;14.19;100.00
38303;BME280;24103;42.454;27.400;2023-05-22T01:15:20;100317.25;;;14.14;100.00
38303;BME280;24103;42.454;27.400;2023-05-22T01:20:39;100322.03;;;13.98;100.00
38303;BME280;24103;42.454;27.400;2023-05-22T01:31:28;100304.69;;;13.70;100.00
38303;BME280;24103;42.454;27.400;2023-05-22T01:33:57;100308.53;;;13.66;100.00
38303;BME280;24103;42.454;27.400;2023-05-22T01:36:27;100312.59;;;13.58;100.00
38303;BME280;24103;42.454;27.400;2023-05-22T01:38:55;100312.31;;;13.50;100.00
38303;BME280;24103;42.454;27.400;2023-05-22T01:41:23;100306.63;;;13.43;100.00
38303;BME280;24103;42.454;27.400;2023-05-22T01:43:48;100303.34;;;13.40;100.00
38303;BME280;24103;42.454;27.400;2023-05-22T01:46:14;100313.56;;;13.33;100.00
38303;BME280;24103;42.454;27.400;2023-05-22T01:48:40;100316.84;;;13.24;100.00
38303;BME280;24103;42.454;27.400;2023-05-22T01:51:18;100309.84;;;13.23;100.00
38303;BME280;24103;42.454;27.400;2023-05-22T01:56:22;100312.00;;;13.18;100.00
38303;BME280;24103;42.454;27.400;2023-05-22T01:59:11;100316.47;;;13.17;100.00
38303;BME280;24103;42.454;27.400;2023-05-22T02:01:40;100315.72;;;13.15;100.00
38303;BME280;24103;42.454;27.400;2023-05-22T02:04:08;100305.22;;;13.14;100.00
38303;BME280;24103;42.454;27.400;2023-05-22T02:06:34;100317.19;;;13.19;100.00
38303;BME280;24103;42.454;27.400;2023-05-22T02:09:01;100311.03;;;13.19;100.00
38303;BME280;24103;42.454;27.400;2023-05-22T02:11:30;100315.25;;;13.21;100.00
38303;BME280;24103;42.454;27.400;2023-05-22T02:13:56;100304.31;;;13.26;100.00
38303;BME280;24103;42.454;27.400;2023-05-22T02:16:22;100303.03;;;13.32;100.00
38303;BME280;24103;42.454;27.400;2023-05-22T02:18:48;100299.94;;;13.38;100.00
38303;BME280;24103;42.454;27.400;2023-05-22T02:21:13;100300.00;;;13.49;100.00
38303;BME280;24103;42.454;27.400;2023-05-22T02:23:39;100306.91;;;13.52;100.00
38303;BME280;24103;42.454;27.400;2023-05-22T02:26:05;100311.13;;;13.54;100.00
38303;BME280;24103;42.454;27.400;2023-05-22T02:28:30;100303.66;;;13.59;100.00
38303;BME280;24103;42.454;27.400;2023-05-22T02:30:56;100310.06;;;13.57;100.00
38303;BME280;24103;42.454;27.400;2023-05-22T02:33:21;100306.69;;;13.55;100.00
38303;BME280;24103;42.454;27.400;2023-05-22T02:35:47;100312.22;;;13.52;100.00
38303;BME280;24103;42.454;27.400;2023-05-22T02:38:12;100314.97;;;13.50;100.00
38303;BME280;24103;42.454;27.400;2023-05-22T02:40:38;100310.72;;;13.48;100.00
38303;BME280;24103;42.454;27.400;2023-05-22T02:43:04;100313.28;;;13.49;100.00
38303;BME280;24103;42.454;27.400;2023-05-22T02:45:30;100316.53;;;13.53;100.00
38303;BME280;24103;42.454;27.400;2023-05-22T02:47:55;100308.34;;;13.56;100.00
38303;BME280;24103;42.454;27.400;2023-05-22T02:50:21;100311.28;;;13.64;100.00
38303;BME280;24103;42.454;27.400;2023-05-22T02:52:46;100306.47;;;13.69;100.00
38303;BME280;24103;42.454;27.400;2023-05-22T02:55:13;100308.31;;;13.69;100.00
38303;BME280;24103;42.454;27.400;2023-05-22T02:57:39;100312.31;;;13.74;100.00
38303;BME280;24103;42.454;27.400;2023-05-22T03:00:04;100311.72;;;13.82;100.00
38303;BME280;24103;42.454;27.400;2023-05-22T03:02:38;100316.34;;;13.91;100.00
38303;BME280;24103;42.454;27.400;2023-05-22T03:05:04;100313.25;;;13.97;100.00
38303;BME280;24103;42.454;27.400;2023-05-22T03:07:30;100314.22;;;14.08;100.00
38303;BME280;24103;42.454;27.400;2023-05-22T03:09:56;100308.31;;;14.15;100.00
38303;BME280;24103;42.454;27.400;2023-05-22T03:12:21;100315.72;;;14.46;100.00
38303;BME280;24103;42.454;27.400;2023-05-22T03:14:47;100319.13;;;14.48;100.00
38303;BME280;24103;42.454;27.400;2023-05-22T03:17:12;100315.72;;;14.46;100.00
38303;BME280;24103;42.454;27.400;2023-05-22T03:19:38;100310.19;;;14.49;100.00
38303;BME280;24103;42.454;27.400;2023-05-22T03:22:03;100312.72;;;14.50;100.00
38303;BME280;24103;42.454;27.400;2023-05-22T03:24:29;100313.09;;;14.57;100.00
38303;BME280;24103;42.454;27.400;2023-05-22T03:26:55;100321.94;;;14.69;100.00
38303;BME280;24103;42.454;27.400;2023-05-22T03:29:21;100314.69;;;14.82;100.00
38303;BME280;24103;42.454;27.400;2023-05-22T03:31:46;100306.69;;;14.93;100.00
38303;BME280;24103;42.454;27.400;2023-05-22T03:34:11;100316.94;;;15.09;100.00
38303;BME280;24103;42.454;27.400;2023-05-22T03:36:37;100310.25;;;15.26;100.00
38303;BME280;24103;42.454;27.400;2023-05-22T03:39:03;100315.69;;;15.36;100.00
38303;BME280;24103;42.454;27.400;2023-05-22T03:41:29;100313.13;;;15.46;100.00
38303;BME280;24103;42.454;27.400;2023-05-22T03:43:54;100320.41;;;15.65;100.00
38303;BME280;24103;42.454;27.400;2023-05-22T03:46:21;100330.09;;;15.77;100.00
38303;BME280;24103;42.454;27.400;2023-05-22T03:48:47;100328.22;;;15.89;100.00
38303;BME280;24103;42.454;27.400;2023-05-22T03:51:12;100327.63;;;16.07;100.00
38303;BME280;24103;42.454;27.400;2023-05-22T03:53:38;100326.34;;;16.22;100.00
38303;BME280;24103;42.454;27.400;2023-05-22T03:56:03;100325.28;;;16.34;100.00
38303;BME280;24103;42.454;27.400;2023-05-22T03:58:29;100330.72;;;16.54;100.00
38303;BME280;24103;42.454;27.400;2023-05-22T04:00:55;100329.81;;;16.74;100.00
38303;BME280;24103;42.454;27.400;2023-05-22T04:03:23;100331.50;;;16.97;100.00
38303;BME280;24103;42.454;27.400;2023-05-22T04:05:48;100335.06;;;17.17;100.00
38303;BME280;24103;42.454;27.400;2023-05-22T04:08:15;100327.22;;;17.25;100.00
38303;BME280;24103;42.454;27.400;2023-05-22T04:10:41;100328.63;;;17.39;100.00
38303;BME280;24103;42.454;27.400;2023-05-22T04:13:11;100333.72;;;17.52;100.00
38303;BME280;24103;42.454;27.400;2023-05-22T04:15:36;100330.66;;;17.66;100.00
38303;BME280;24103;42.454;27.400;2023-05-22T04:18:02;100330.53;;;17.87;100.00
38303;BME280;24103;42.454;27.400;2023-05-22T04:20:27;100330.47;;;18.16;100.00
38303;BME280;24103;42.454;27.400;2023-05-22T04:22:53;100338.53;;;18.64;100.00
38303;BME280;24103;42.454;27.400;2023-05-22T04:25:19;100318.00;;;19.20;100.00
38303;BME280;24103;42.454;27.400;2023-05-22T04:27:45;100322.81;;;19.62;100.00
38303;BME280;24103;42.454;27.400;2023-05-22T04:30:13;100317.91;;;20.19;100.00
38303;BME280;24103;42.454;27.400;2023-05-22T04:32:41;100312.56;;;20.72;100.00
38303;BME280;24103;42.454;27.400;2023-05-22T04:35:08;100306.31;;;21.48;100.00
38303;BME280;24103;42.454;27.400;2023-05-22T04:37:34;100306.47;;;22.13;100.00
38303;BME280;24103;42.454;27.400;2023-05-22T04:40:00;100306.25;;;22.47;100.00
38303;BME280;24103;42.454;27.400;2023-05-22T04:42:32;100308.53;;;22.75;93.98
38303;BME280;24103;42.454;27.400;2023-05-22T04:44:58;100302.13;;;23.15;90.66
38303;BME280;24103;42.454;27.400;2023-05-22T04:47:24;100290.84;;;24.42;83.81
38303;BME280;24103;42.454;27.400;2023-05-22T04:49:49;100273.91;;;26.64;69.70
38303;BME280;24103;42.454;27.400;2023-05-22T04:52:16;100245.50;;;28.62;56.37
38303;BME280;24103;42.454;27.400;2023-05-22T04:54:41;100246.97;;;30.18;49.56
38303;BME280;24103;42.454;27.400;2023-05-22T04:57:08;100225.63;;;31.85;44.36
38303;BME280;24103;42.454;27.400;2023-05-22T04:59:35;100205.41;;;33.82;39.93
38303;BME280;24103;42.454;27.400;2023-05-22T05:02:04;100189.97;;;35.73;35.29
38303;BME280;24103;42.454;27.400;2023-05-22T05:04:31;100172.34;;;37.52;31.93
38303;BME280;24103;42.454;27.400;2023-05-22T05:06:56;100181.38;;;38.59;30.17
38303;BME280;24103;42.454;27.400;2023-05-22T05:09:25;100170.03;;;38.71;28.95
38303;BME280;24103;42.454;27.400;2023-05-22T05:11:51;100177.78;;;39.08;27.85
38303;BME280;24103;42.454;27.400;2023-05-22T05:14:17;100175.09;;;38.93;26.93
38303;BME280;24103;42.454;27.400;2023-05-22T05:16:43;100186.50;;;38.26;27.76
38303;BME280;24103;42.454;27.400;2023-05-22T05:19:09;100189.91;;;37.92;28.00
38303;BME280;24103;42.454;27.400;2023-05-22T05:21:35;100181.41;;;37.06;28.14
38303;BME280;24103;42.454;27.400;2023-05-22T05:24:01;100188.53;;;36.72;28.80
38303;BME280;24103;42.454;27.400;2023-05-22T05:26:27;100194.28;;;36.65;28.83
38303;BME280;24103;42.454;27.400;2023-05-22T05:28:52;100196.25;;;36.16;29.15
38303;BME280;24103;42.454;27.400;2023-05-22T05:31:18;100198.81;;;36.28;28.87
38303;BME280;24103;42.454;27.400;2023-05-22T05:33:48;100193.56;;;37.26;28.09
38303;BME280;24103;42.454;27.400;2023-05-22T05:36:14;100192.44;;;37.68;27.77
38303;BME280;24103;42.454;27.400;2023-05-22T05:38:40;100187.19;;;37.72;27.59
38303;BME280;24103;42.454;27.400;2023-05-22T05:41:06;100196.28;;;37.00;27.81
38303;BME280;24103;42.454;27.400;2023-05-22T05:43:32;100201.19;;;35.07;29.71
38303;BME280;24103;42.454;27.400;2023-05-22T05:45:57;100217.16;;;33.66;31.51
38303;BME280;24103;42.454;27.400;2023-05-22T05:48:23;100228.63;;;33.29;32.76
38303;BME280;24103;42.454;27.400;2023-05-22T05:50:48;100233.63;;;34.00;32.48
38303;BME280;24103;42.454;27.400;2023-05-22T05:53:14;100229.63;;;36.25;30.62
38303;BME280;24103;42.454;27.400;2023-05-22T05:55:40;100211.91;;;38.13;27.93
38303;BME280;24103;42.454;27.400;2023-05-22T05:58:05;100194.56;;;39.52;25.90
38303;BME280;24103;42.454;27.400;2023-05-22T06:00:31;100183.72;;;40.33;24.86
38303;BME280;24103;42.454;27.400;2023-05-22T06:02:56;100173.41;;;41.48;23.78
38303;BME280;24103;42.454;27.400;2023-05-22T06:05:22;100175.28;;;43.31;22.18
38303;BME280;24103;42.454;27.400;2023-05-22T06:07:47;100160.84;;;44.84;20.76
38303;BME280;24103;42.454;27.400;2023-05-22T06:10:14;100160.22;;;45.61;19.59
38303;BME280;24103;42.454;27.400;2023-05-22T06:12:39;100159.97;;;46.13;18.56
38303;BME280;24103;42.454;27.400;2023-05-22T06:15:06;100156.72;;;46.75;18.42
38303;BME280;24103;42.454;27.400;2023-05-22T06:17:32;100150.91;;;47.01;17.60
38303;BME280;24103;42.454;27.400;2023-05-22T06:19:58;100150.97;;;47.13;17.00
38303;BME280;24103;42.454;27.400;2023-05-22T06:22:24;100149.00;;;47.26;16.95
38303;BME280;24103;42.454;27.400;2023-05-22T06:24:53;100158.50;;;47.46;16.60
38303;BME280;24103;42.454;27.400;2023-05-22T06:27:20;100159.44;;;48.24;16.64
38303;BME280;24103;42.454;27.400;2023-05-22T06:29:47;100160.00;;;48.42;16.11
38303;BME280;24103;42.454;27.400;2023-05-22T06:32:13;100159.75;;;48.47;15.88
38303;BME280;24103;42.454;27.400;2023-05-22T06:34:39;100170.03;;;48.84;15.68
38303;BME280;24103;42.454;27.400;2023-05-22T06:37:05;100155.88;;;48.93;15.60
38303;BME280;24103;42.454;27.400;2023-05-22T06:39:30;100169.66;;;49.14;15.34
38303;BME280;24103;42.454;27.400;2023-05-22T06:41:56;100170.75;;;49.25;15.38
38303;BME280;24103;42.454;27.400;2023-05-22T06:44:22;100164.72;;;49.71;14.99
38303;BME280;24103;42.454;27.400;2023-05-22T06:46:50;100167.94;;;50.05;14.53
38303;BME280;24103;42.454;27.400;2023-05-22T06:49:16;100168.81;;;50.44;14.31
38303;BME280;24103;42.454;27.400;2023-05-22T06:51:42;100168.72;;;50.57;13.96
38303;BME280;24103;42.454;27.400;2023-05-22T06:54:07;100168.91;;;50.48;14.60
38303;BME280;24103;42.454;27.400;2023-05-22T06:56:36;100156.69;;;50.21;14.22
38303;BME280;24103;42.454;27.400;2023-05-22T06:59:03;100165.25;;;49.92;14.08
38303;BME280;24103;42.454;27.400;2023-05-22T07:05:15;100173.81;;;51.33;13.62
38303;BME280;24103;42.454;27.400;2023-05-22T07:07:41;100172.78;;;52.48;13.17
38303;BME280;24103;42.454;27.400;2023-05-22T07:10:07;100148.84;;;51.54;11.09
38303;BME280;24103;42.454;27.400;2023-05-22T07:12:32;100156.63;;;50.01;12.29
38303;BME280;24103;42.454;27.400;2023-05-22T07:14:58;100156.94;;;49.80;13.05
38303;BME280;24103;42.454;27.400;2023-05-22T07:17:24;100162.28;;;50.56;12.62
38303;BME280;24103;42.454;27.400;2023-05-22T07:19:50;100177.97;;;50.77;12.89
38303;BME280;24103;42.454;27.400;2023-05-22T07:22:15;100160.00;;;49.75;12.76
38303;BME280;24103;42.454;27.400;2023-05-22T07:24:41;100164.28;;;49.85;12.91
38303;BME280;24103;42.454;27.400;2023-05-22T07:27:07;100148.69;;;49.87;11.97
38303;BME280;24103;42.454;27.400;2023-05-22T07:29:34;100162.16;;;47.84;13.03
38303;BME280;24103;42.454;27.400;2023-05-22T07:31:59;100161.44;;;47.87;12.88
38303;BME280;24103;42.454;27.400;2023-05-22T07:34:25;100161.22;;;48.04;12.42
38303;BME280;24103;42.454;27.400;2023-05-22T07:36:56;100153.75;;;48.08;12.07
38303;BME280;24103;42.454;27.400;2023-05-22T07:39:22;100154.97;;;46.91;12.69
38303;BME280;24103;42.454;27.400;2023-05-22T07:41:48;100153.63;;;46.55;13.08
38303;BME280;24103;42.454;27.400;2023-05-22T07:44:14;100155.59;;;46.33;13.83
38303;BME280;24103;42.454;27.400;2023-05-22T07:46:40;100160.53;;;46.28;13.90
38303;BME280;24103;42.454;27.400;2023-05-22T07:49:05;100154.13;;;45.12;14.04
38303;BME280;24103;42.454;27.400;2023-05-22T07:51:31;100164.31;;;43.57;14.61
38303;BME280;24103;42.454;27.400;2023-05-22T07:53:57;100170.41;;;42.69;15.67
38303;BME280;24103;42.454;27.400;2023-05-22T07:56:22;100162.44;;;42.40;16.08
38303;BME280;24103;42.454;27.400;2023-05-22T07:58:50;100163.16;;;41.62;16.76
38303;BME280;24103;42.454;27.400;2023-05-22T08:01:16;100156.56;;;41.58;16.97
38303;BME280;24103;42.454;27.400;2023-05-22T08:03:42;100169.88;;;41.89;16.96
38303;BME280;24103;42.454;27.400;2023-05-22T08:06:08;100177.63;;;39.29;18.13
38303;BME280;24103;42.454;27.400;2023-05-22T08:08:33;100172.06;;;36.19;20.83
38303;BME280;24103;42.454;27.400;2023-05-22T08:10:59;100184.31;;;34.44;22.08
38303;BME280;24103;42.454;27.400;2023-05-22T08:13:24;100189.97;;;33.42;23.94
38303;BME280;24103;42.454;27.400;2023-05-22T08:15:50;100198.91;;;32.92;25.69
38303;BME280;24103;42.454;27.400;2023-05-22T08:18:16;100210.13;;;32.49;26.50
38303;BME280;24103;42.454;27.400;2023-05-22T08:20:41;100204.19;;;31.46;27.13
38303;BME280;24103;42.454;27.400;2023-05-22T08:23:07;100218.91;;;30.36;28.96
38303;BME280;24103;42.454;27.400;2023-05-22T08:25:32;100217.06;;;29.42;29.49
38303;BME280;24103;42.454;27.400;2023-05-22T08:27:58;100223.56;;;28.57;30.92
38303;BME280;24103;42.454;27.400;2023-05-22T08:30:23;100226.91;;;28.53;32.22
38303;BME280;24103;42.454;27.400;2023-05-22T08:32:49;100244.56;;;27.76;32.98
38303;BME280;24103;42.454;27.400;2023-05-22T08:35:14;100249.09;;;27.09;35.50
38303;BME280;24103;42.454;27.400;2023-05-22T08:37:40;100251.88;;;26.81;35.91
38303;BME280;24103;42.454;27.400;2023-05-22T08:40:12;100270.25;;;26.79;37.11
38303;BME280;24103;42.454;27.400;2023-05-22T08:42:38;100258.72;;;26.63;37.70
38303;BME280;24103;42.454;27.400;2023-05-22T08:45:04;100265.94;;;26.56;39.37
38303;BME280;24103;42.454;27.400;2023-05-22T08:47:33;100265.13;;;26.62;39.35
38303;BME280;24103;42.454;27.400;2023-05-22T08:50:01;100266.31;;;26.46;38.58
38303;BME280;24103;42.454;27.400;2023-05-22T08:52:54;100263.59;;;25.90;38.47
38303;BME280;24103;42.454;27.400;2023-05-22T08:55:21;100271.06;;;25.38;38.52
38303;BME280;24103;42.454;27.400;2023-05-22T08:57:48;100274.88;;;24.92;40.63
38303;BME280;24103;42.454;27.400;2023-05-22T09:00:15;100266.91;;;24.69;39.78
38303;BME280;24103;42.454;27.400;2023-05-22T09:02:42;100269.06;;;24.59;40.49
38303;BME280;24103;42.454;27.400;2023-05-22T09:05:08;100270.53;;;24.46;40.26
38303;BME280;24103;42.454;27.400;2023-05-22T09:07:34;100276.53;;;24.57;41.93
38303;BME280;24103;42.454;27.400;2023-05-22T09:10:00;100273.16;;;24.70;41.18
38303;BME280;24103;42.454;27.400;2023-05-22T09:12:30;100275.41;;;24.66;40.30
38303;BME280;24103;42.454;27.400;2023-05-22T09:15:06;100267.00;;;24.31;41.02
38303;BME280;24103;42.454;27.400;2023-05-22T09:17:32;100257.19;;;24.15;41.83
38303;BME280;24103;42.454;27.400;2023-05-22T09:19:58;100270.66;;;24.00;42.50
38303;BME280;24103;42.454;27.400;2023-05-22T09:22:34;100270.97;;;24.05;42.35
38303;BME280;24103;42.454;27.400;2023-05-22T09:25:00;100274.09;;;24.32;43.25
38303;BME280;24103;42.454;27.400;2023-05-22T09:27:26;100265.91;;;24.55;42.39
38303;BME280;24103;42.454;27.400;2023-05-22T09:29:54;100273.53;;;24.81;42.19
38303;BME280;24103;42.454;27.400;2023-05-22T09:32:21;100272.63;;;24.96;41.59
38303;BME280;24103;42.454;27.400;2023-05-22T09:34:46;100270.69;;;25.05;42.55
38303;BME280;24103;42.454;27.400;2023-05-22T09:37:13;100270.56;;;25.13;42.35
38303;BME280;24103;42.454;27.400;2023-05-22T09:39:43;100268.16;;;25.03;40.98
38303;BME280;24103;42.454;27.400;2023-05-22T09:42:09;100268.59;;;24.85;41.43
38303;BME280;24103;42.454;27.400;2023-05-22T09:44:38;100275.63;;;24.86;42.50
38303;BME280;24103;42.454;27.400;2023-05-22T09:47:07;100267.50;;;25.01;40.69
38303;BME280;24103;42.454;27.400;2023-05-22T09:49:44;100278.19;;;24.73;41.57
38303;BME280;24103;42.454;27.400;2023-05-22T09:52:10;100264.03;;;24.41;41.50
38303;BME280;24103;42.454;27.400;2023-05-22T09:54:45;100266.25;;;24.37;43.09
38303;BME280;24103;42.454;27.400;2023-05-22T09:57:16;100271.88;;;24.65;42.78
38303;BME280;24103;42.454;27.400;2023-05-22T09:59:43;100264.84;;;24.71;41.44
38303;BME280;24103;42.454;27.400;2023-05-22T10:02:13;100260.44;;;25.00;41.82
38303;BME280;24103;42.454;27.400;2023-05-22T10:04:39;100263.16;;;25.36;41.41
38303;BME280;24103;42.454;27.400;2023-05-22T10:07:07;100265.41;;;25.54;40.99
38303;BME280;24103;42.454;27.400;2023-05-22T10:09:37;100257.66;;;25.51;39.32
38303;BME280;24103;42.454;27.400;2023-05-22T10:12:05;100264.28;;;25.49;39.13
38303;BME280;24103;42.454;27.400;2023-05-22T10:14:33;100258.31;;;25.53;39.83
38303;BME280;24103;42.454;27.400;2023-05-22T10:16:59;100251.16;;;25.67;38.32
38303;BME280;24103;42.454;27.400;2023-05-22T10:19:29;100240.97;;;25.69;38.54
38303;BME280;24103;42.454;27.400;2023-05-22T10:21:57;100237.41;;;25.69;37.37
38303;BME280;24103;42.454;27.400;2023-05-22T10:24:24;100230.72;;;25.65;37.82
38303;BME280;24103;42.454;27.400;2023-05-22T10:26:52;100238.38;;;25.83;38.02
38303;BME280;24103;42.454;27.400;2023-05-22T10:29:33;100237.72;;;25.81;38.15
38303;BME280;24103;42.454;27.400;2023-05-22T10:32:07;100232.50;;;26.01;37.45
38303;BME280;24103;42.454;27.400;2023-05-22T10:37:57;100222.53;;;26.84;33.30
38303;BME280;24103;42.454;27.400;2023-05-22T10:40:30;100207.41;;;26.62;34.41
38303;BME280;24103;42.454;27.400;2023-05-22T10:43:00;100204.97;;;26.32;33.18
38303;BME280;24103;42.454;27.400;2023-05-22T10:45:26;100204.25;;;26.17;36.11
38303;BME280;24103;42.454;27.400;2023-05-22T10:50:31;100199.41;;;26.05;35.17
38303;BME280;24103;42.454;27.400;2023-05-22T10:53:19;100201.22;;;25.98;36.51
38303;BME280;24103;42.454;27.400;2023-05-22T10:55:51;100194.41;;;26.02;36.19
38303;BME280;24103;42.454;27.400;2023-05-22T10:58:33;100197.94;;;26.03;35.59
38303;BME280;24103;42.454;27.400;2023-05-22T11:01:11;100188.31;;;25.72;35.03
38303;BME280;24103;42.454;27.400;2023-05-22T11:04:14;100183.28;;;25.69;36.03
38303;BME280;24103;42.454;27.400;2023-05-22T11:06:48;100191.19;;;25.42;35.72
38303;BME280;24103;42.454;27.400;2023-05-22T11:09:32;100185.16;;;25.18;36.15
38303;BME280;24103;42.454;27.400;2023-05-22T11:12:18;100179.69;;;25.33;36.73
38303;BME280;24103;42.454;27.400;2023-05-22T11:20:21;100184.50;;;25.16;36.01
38303;BME280;24103;42.454;27.400;2023-05-22T11:23:04;100172.50;;;25.26;35.86
38303;BME280;24103;42.454;27.400;2023-05-22T11:25:32;100166.41;;;25.17;34.35
38303;BME280;24103;42.454;27.400;2023-05-22T11:28:01;100168.91;;;25.18;35.39
38303;BME280;24103;42.454;27.400;2023-05-22T11:30:27;100178.06;;;25.39;35.43
38303;BME280;24103;42.454;27.400;2023-05-22T11:32:56;100181.97;;;25.58;36.00
38303;BME280;24103;42.454;27.400;2023-05-22T11:35:22;100187.25;;;25.66;34.25
38303;BME280;24103;42.454;27.400;2023-05-22T11:37:49;100183.56;;;25.74;33.38
38303;BME280;24103;42.454;27.400;2023-05-22T11:40:17;100195.06;;;25.83;33.40
38303;BME280;24103;42.454;27.400;2023-05-22T11:42:43;100190.47;;;25.83;32.78
38303;BME280;24103;42.454;27.400;2023-05-22T11:45:08;100179.59;;;26.05;32.97
38303;BME280;24103;42.454;27.400;2023-05-22T11:47:35;100194.50;;;26.22;31.81
38303;BME280;24103;42.454;27.400;2023-05-22T11:50:01;100187.59;;;26.20;32.38
38303;BME280;24103;42.454;27.400;2023-05-22T11:52:35;100195.84;;;25.77;32.71
38303;BME280;24103;42.454;27.400;2023-05-22T11:55:03;100200.13;;;25.64;34.16
38303;BME280;24103;42.454;27.400;2023-05-22T11:57:30;100197.38;;;25.86;33.70
38303;BME280;24103;42.454;27.400;2023-05-22T11:59:56;100186.69;;;25.49;34.02
38303;BME280;24103;42.454;27.400;2023-05-22T12:02:22;100184.72;;;25.36;34.98
38303;BME280;24103;42.454;27.400;2023-05-22T12:04:53;100196.03;;;25.25;35.42
38303;BME280;24103;42.454;27.400;2023-05-22T12:07:19;100197.06;;;24.66;35.99
38303;BME280;24103;42.454;27.400;2023-05-22T12:09:46;100192.22;;;24.32;37.49
38303;BME280;24103;42.454;27.400;2023-05-22T12:12:14;100197.06;;;24.36;38.27
38303;BME280;24103;42.454;27.400;2023-05-22T12:14:43;100225.38;;;23.96;45.42
38303;BME280;24103;42.454;27.400;2023-05-22T12:17:11;100250.34;;;23.51;53.63
38303;BME280;24103;42.454;27.400;2023-05-22T12:19:39;100244.03;;;23.13;60.99
38303;BME280;24103;42.454;27.400;2023-05-22T12:22:05;100251.72;;;23.24;57.50
38303;BME280;24103;42.454;27.400;2023-05-22T12:24:44;100260.81;;;22.92;58.75
38303;BME280;24103;42.454;27.400;2023-05-22T12:27:13;100269.56;;;22.94;59.69
38303;BME280;24103;42.454;27.400;2023-05-22T12:29:40;100272.00;;;22.72;58.07
38303;BME280;24103;42.454;27.400;2023-05-22T12:32:11;100267.25;;;22.26;62.00
38303;BME280;24103;42.454;27.400;2023-05-22T12:34:45;100290.84;;;22.00;64.27
38303;BME280;24103;42.454;27.400;2023-05-22T12:37:24;100294.22;;;21.77;62.84
38303;BME280;24103;42.454;27.400;2023-05-22T12:39:57;100293.03;;;21.55;63.94
38303;BME280;24103;42.454;27.400;2023-05-22T12:42:26;100301.72;;;21.41;63.50
38303;BME280;24103;42.454;27.400;2023-05-22T12:44:53;100280.50;;;21.21;65.30
38303;BME280;24103;42.454;27.400;2023-05-22T12:47:19;100282.25;;;21.47;64.15
38303;BME280;24103;42.454;27.400;2023-05-22T12:49:44;100284.97;;;21.63;60.70
38303;BME280;24103;42.454;27.400;2023-05-22T12:52:10;100280.44;;;21.64;58.98
38303;BME280;24103;42.454;27.400;2023-05-22T12:54:36;100281.59;;;21.53;56.33
38303;BME280;24103;42.454;27.400;2023-05-22T12:57:01;100275.03;;;21.47;58.42
38303;BME280;24103;42.454;27.400;2023-05-22T12:59:26;100271.03;;;21.51;56.53
38303;BME280;24103;42.454;27.400;2023-05-22T13:01:52;100266.44;;;21.35;57.27
38303;BME280;24103;42.454;27.400;2023-05-22T13:04:18;100274.66;;;21.34;59.38
38303;BME280;24103;42.454;27.400;2023-05-22T13:06:43;100278.31;;;21.16;55.86
38303;BME280;24103;42.454;27.400;2023-05-22T13:09:09;100266.97;;;20.88;56.61